Time;durP1;ratioP1;P1;durP2;ratioP2;P2;SDS_P1;SDS_P2;PMS_P1;PMS_P2;Temp;Humidity;BMP_temperature;BMP_pressure;BME280_temperature;BME280_humidity;BME280_pressure;Samples;Min_cycle;Max_cycle;Signal;HPM_P1;HPM_P2
2022/06/17 00:01:31;;;;;;;2.77;2.50;;;;;;;17.46;51.05;99757.61;1695290;83;21917;-59
2022/06/17 00:03:58;;;;;;;5.78;2.22;;;;;;;17.42;51.10;99753.48;1691066;83;21006;-60
2022/06/17 00:06:25;;;;;;;3.00;2.58;;;;;;;17.43;51.22;99752.53;1686353;83;21593;-61
2022/06/17 00:08:52;;;;;;;5.50;2.85;;;;;;;17.40;51.15;99754.06;1697057;83;21214;-59
2022/06/17 00:11:32;;;;;;;5.03;2.52;;;;;;;17.38;51.41;99751.99;1685604;83;21700;-62
2022/06/17 00:13:59;;;;;;;3.05;2.45;;;;;;;17.36;51.29;99752.58;1687360;83;21439;-59
2022/06/17 00:16:26;;;;;;;2.83;2.40;;;;;;;17.36;51.62;99759.23;1693439;83;21431;-59
2022/06/17 00:18:53;;;;;;;6.90;2.85;;;;;;;17.33;51.50;99757.64;1749609;80;21589;-59
2022/06/17 00:21:27;;;;;;;3.90;2.70;;;;;;;17.30;51.72;99758.69;1747586;80;21459;-59
2022/06/17 00:23:54;;;;;;;2.80;2.35;;;;;;;17.27;51.74;99756.26;1745917;80;21904;-59
2022/06/17 00:26:21;;;;;;;6.33;3.10;;;;;;;17.25;51.92;99752.86;1753314;80;21702;-60
2022/06/17 00:28:48;;;;;;;2.60;2.40;;;;;;;17.25;52.47;99751.53;1741644;80;21530;-60
2022/06/17 00:31:15;;;;;;;3.52;2.62;;;;;;;17.27;52.83;99754.93;1748477;80;21503;-59
2022/06/17 00:33:43;;;;;;;4.37;2.42;;;;;;;17.35;52.78;99754.40;1745802;80;21491;-59
2022/06/17 00:36:14;;;;;;;4.10;2.47;;;;;;;17.42;52.59;99757.46;1740660;80;21805;-59
2022/06/17 00:38:40;;;;;;;3.72;2.77;;;;;;;17.44;52.41;99750.23;1752417;80;21034;-58
2022/06/17 00:41:32;;;;;;;5.42;2.77;;;;;;;17.48;52.48;99751.74;1754107;80;21472;-59
2022/06/17 00:44:00;;;;;;;4.03;2.52;;;;;;;17.49;52.56;99744.97;1757151;80;21542;-59
2022/06/17 00:46:50;;;;;;;5.62;2.77;;;;;;;17.51;52.74;99741.72;1747081;80;21554;-59
2022/06/17 00:49:31;;;;;;;4.55;2.90;;;;;;;17.50;52.89;99736.05;1724194;80;21775;-59
2022/06/17 00:52:03;;;;;;;4.95;2.87;;;;;;;17.56;52.90;99749.39;1749695;80;21105;-59
2022/06/17 00:54:38;;;;;;;3.17;2.85;;;;;;;17.55;53.14;99742.84;1747036;80;21502;-59
2022/06/17 00:57:28;;;;;;;5.35;2.80;;;;;;;17.56;53.03;99742.74;1750774;80;21463;-59
2022/06/17 01:00:16;;;;;;;3.80;2.67;;;;;;;17.57;53.16;99744.42;1749499;80;22169;-59
2022/06/17 01:02:51;;;;;;;4.22;2.87;;;;;;;17.58;53.04;99746.62;1762606;80;21759;-59
2022/06/17 01:05:23;;;;;;;4.55;3.22;;;;;;;17.55;53.02;99739.70;1751021;80;21002;-59
2022/06/17 01:07:59;;;;;;;3.95;2.95;;;;;;;17.57;52.88;99738.27;1755409;80;21525;-59
2022/06/17 01:10:26;;;;;;;6.78;3.30;;;;;;;17.53;52.75;99730.14;1740906;80;21525;-59
2022/06/17 01:13:01;;;;;;;3.72;3.05;;;;;;;17.53;52.93;99729.66;1750743;80;21499;-59
2022/06/17 01:15:32;;;;;;;6.00;2.62;;;;;;;17.50;52.97;99732.06;1744727;80;21570;-59
2022/06/17 01:17:59;;;;;;;3.95;2.95;;;;;;;17.47;53.01;99732.27;1751414;80;21523;-59
2022/06/17 01:20:29;;;;;;;3.00;2.75;;;;;;;17.45;52.98;99732.02;1749991;80;21624;-59
2022/06/17 01:22:59;;;;;;;5.78;3.22;;;;;;;17.45;53.47;99724.04;1752379;80;21486;-59
2022/06/17 01:25:38;;;;;;;9.38;3.58;;;;;;;17.54;53.72;99730.04;1740662;80;21419;-59
2022/06/17 01:28:11;;;;;;;4.78;2.98;;;;;;;17.56;53.30;99724.63;1706076;80;21979;-59
2022/06/17 01:30:42;;;;;;;4.28;3.30;;;;;;;17.55;53.31;99724.23;1751909;80;21519;-59
2022/06/17 01:33:31;;;;;;;3.75;3.10;;;;;;;17.56;53.33;99723.30;1747118;80;21519;-59
2022/06/17 01:36:15;;;;;;;6.50;3.62;;;;;;;17.56;53.13;99724.63;1748259;80;21490;-59
2022/06/17 01:38:47;;;;;;;3.92;3.47;;;;;;;17.56;53.27;99719.30;1746276;80;21534;-59
2022/06/17 01:41:14;;;;;;;4.87;3.50;;;;;;;17.55;53.52;99714.94;1743084;80;22091;-59
2022/06/17 01:43:57;;;;;;;5.08;4.25;;;;;;;17.54;53.25;99714.09;1750488;80;21543;-59
2022/06/17 01:46:34;;;;;;;7.37;3.58;;;;;;;17.56;53.09;99721.96;1737067;80;21479;-59
2022/06/17 01:49:18;;;;;;;4.80;3.53;;;;;;;17.56;52.94;99716.16;1746848;80;21052;-58
2022/06/17 01:52:01;;;;;;;9.20;4.55;;;;;;;17.56;52.26;99719.30;1743682;80;20943;-59
2022/06/17 01:54:36;;;;;;;7.87;3.85;;;;;;;17.55;52.04;99718.43;1726525;80;21420;-59
2022/06/17 01:57:06;;;;;;;4.90;3.80;;;;;;;17.53;52.25;99714.20;1752184;80;21541;-59
2022/06/17 01:59:50;;;;;;;6.75;4.70;;;;;;;17.53;52.25;99714.20;1748892;80;21054;-58
2022/06/17 02:02:19;;;;;;;5.28;3.87;;;;;;;17.51;52.17;99719.61;1728422;80;21569;-59
2022/06/17 02:04:57;;;;;;;5.92;3.95;;;;;;;17.54;52.24;99715.88;1742179;80;21614;-59
2022/06/17 02:07:35;;;;;;;9.10;3.80;;;;;;;17.55;52.34;99712.27;1753580;80;21962;-58
2022/06/17 02:10:04;;;;;;;7.92;4.08;;;;;;;17.54;52.63;99712.77;1735554;80;21640;-59
2022/06/17 02:12:31;;;;;;;13.50;4.25;;;;;;;17.51;52.72;99719.13;1752401;80;21594;-59
2022/06/17 02:15:02;;;;;;;8.05;4.03;;;;;;;17.50;52.47;99705.97;1744329;80;21566;-59
2022/06/17 02:17:44;;;;;;;8.13;4.37;;;;;;;17.49;52.56;99707.75;1747062;80;21909;-60
2022/06/17 02:20:26;;;;;;;6.35;3.83;;;;;;;17.50;52.08;99708.62;1740742;80;21392;-59
2022/06/17 02:22:53;;;;;;;7.00;4.30;;;;;;;17.51;51.61;99711.15;1689629;84;21010;-62
2022/06/17 02:25:27;;;;;;;7.05;4.53;;;;;;;17.54;51.50;99709.23;1743251;80;21512;-59
2022/06/17 02:27:57;;;;;;;4.17;3.27;;;;;;;17.55;51.32;99702.48;1751282;80;21558;-59
2022/06/17 02:30:28;;;;;;;5.47;3.65;;;;;;;17.57;51.25;99699.72;1740693;80;21566;-59
2022/06/17 02:32:59;;;;;;;8.98;4.00;;;;;;;17.57;51.37;99699.72;1747188;80;22101;-59
2022/06/17 02:35:43;;;;;;;3.72;3.42;;;;;;;17.59;51.66;99696.47;1751084;80;21415;-59
2022/06/17 02:38:17;;;;;;;4.08;3.42;;;;;;;17.64;52.08;99700.99;1735084;80;21460;-59
2022/06/17 02:40:51;;;;;;;5.85;3.05;;;;;;;17.67;52.07;99699.45;1740468;80;21048;-59
2022/06/17 02:43:24;;;;;;;3.95;3.30;;;;;;;17.72;51.45;99705.27;1754758;80;21399;-59
2022/06/17 02:45:57;;;;;;;8.88;3.47;;;;;;;17.78;50.99;99691.56;1754766;80;21808;-59
2022/06/17 02:48:30;;;;;;;5.65;3.15;;;;;;;17.84;51.31;99691.14;1751767;80;21474;-60
2022/06/17 02:50:59;;;;;;;7.65;3.45;;;;;;;17.88;51.75;99693.09;1744423;80;21435;-60
2022/06/17 02:53:32;;;;;;;6.03;2.92;;;;;;;17.93;51.12;99692.75;1751059;80;21562;-60
2022/06/17 02:56:08;;;;;;;5.60;3.10;;;;;;;18.00;50.98;99697.52;1750771;80;21451;-59
2022/06/17 02:58:51;;;;;;;4.95;2.90;;;;;;;18.07;50.79;99691.27;1749828;80;21471;-59
2022/06/17 03:01:23;;;;;;;7.62;3.22;;;;;;;18.13;50.93;99688.16;1760392;80;21321;-59
2022/06/17 03:03:54;;;;;;;4.10;3.08;;;;;;;18.18;50.78;99685.17;1758476;80;21562;-59
2022/06/17 03:06:37;;;;;;;10.38;3.30;;;;;;;18.22;51.15;99690.14;1775157;79;21076;-60
2022/06/17 03:09:19;;;;;;;9.33;3.60;;;;;;;18.27;51.30;99683.13;1766636;80;21486;-60
2022/06/17 03:11:56;;;;;;;6.30;2.83;;;;;;;18.34;51.13;99684.38;1768952;80;21557;-62
2022/06/17 03:14:26;;;;;;;4.15;3.40;;;;;;;18.41;50.70;99682.13;1762289;80;21549;-60
2022/06/17 03:16:54;;;;;;;3.62;3.33;;;;;;;18.45;50.74;99676.94;1754428;80;21538;-61
2022/06/17 03:19:22;;;;;;;10.55;3.25;;;;;;;18.49;51.12;99681.90;1755779;80;21021;-60
2022/06/17 03:21:49;;;;;;;7.70;3.33;;;;;;;18.54;51.69;99681.57;1759102;80;21400;-61
2022/06/17 03:24:42;;;;;;;5.78;3.30;;;;;;;18.55;51.93;99685.91;1760318;80;21777;-60
2022/06/17 03:27:16;;;;;;;4.65;3.42;;;;;;;18.59;51.92;99683.88;1689464;83;21052;-60
2022/06/17 03:29:44;;;;;;;5.80;3.37;;;;;;;18.62;52.49;99684.98;1752456;80;21541;-60
2022/06/17 03:32:15;;;;;;;;;;;;;;;18.65;52.61;99690.09;1763662;80;21570;-60
2022/06/17 03:34:54;;;;;;;4.03;3.08;;;;;;;18.68;52.18;99685.38;1764173;80;20429;-60
2022/06/17 03:37:28;;;;;;;7.92;3.22;;;;;;;18.69;52.47;99684.89;1762485;80;21816;-60
2022/06/17 03:40:04;;;;;;;5.83;2.90;;;;;;;18.76;52.97;99678.59;1751152;80;21573;-60
2022/06/17 03:42:49;;;;;;;2.87;2.45;;;;;;;18.78;54.04;99684.66;1746872;80;21541;-61
2022/06/17 03:45:32;;;;;;;3.40;3.10;;;;;;;18.85;55.23;99683.25;1738433;80;20958;-60
2022/06/17 03:48:06;;;;;;;7.30;3.17;;;;;;;18.94;54.93;99685.22;1752869;80;21613;-61
2022/06/17 03:50:35;;;;;;;6.42;3.60;;;;;;;18.99;54.20;99677.72;1736416;80;21790;-60
2022/06/17 03:53:25;;;;;;;10.48;3.70;;;;;;;19.07;54.34;99685.12;1748586;80;21577;-60
2022/06/17 03:55:53;;;;;;;9.13;4.22;;;;;;;19.15;54.45;99681.36;1753725;80;20966;-60
2022/06/17 03:58:20;;;;;;;6.28;3.80;;;;;;;19.15;53.36;99681.36;1756922;80;21459;-63
2022/06/17 04:01:21;;;;;;;3.47;3.17;;;;;;;19.11;52.44;99679.08;1758273;80;21592;-61
2022/06/17 04:03:56;;;;;;;4.85;3.47;;;;;;;19.11;51.79;99681.25;1755779;80;21883;-61
2022/06/17 04:06:28;;;;;;;6.42;3.22;;;;;;;19.10;51.63;99674.70;1761638;80;21470;-62
2022/06/17 04:09:02;;;;;;;8.63;3.40;;;;;;;19.10;51.83;99671.57;1753110;80;21527;-61
2022/06/17 04:11:37;;;;;;;8.55;3.90;;;;;;;19.09;51.23;99675.19;1754837;80;21530;-61
2022/06/17 04:14:37;;;;;;;4.80;3.27;;;;;;;19.10;51.34;99683.56;1753213;80;21510;-61
2022/06/17 04:17:28;;;;;;;5.67;3.40;;;;;;;19.13;50.92;99682.47;1743555;80;21772;-61
2022/06/17 04:20:06;;;;;;;6.80;3.30;;;;;;;19.11;50.96;99678.58;1758040;80;21582;-62
2022/06/17 04:22:35;;;;;;;6.83;3.15;;;;;;;19.12;51.05;99675.42;1717565;80;21501;-62
2022/06/17 04:25:13;;;;;;;8.50;3.47;;;;;;;19.15;51.15;99673.86;1707840;80;21423;-62
2022/06/17 04:27:57;;;;;;;4.37;2.92;;;;;;;19.18;51.21;99673.14;1760526;80;21542;-61
2022/06/17 04:30:28;;;;;;;8.35;3.08;;;;;;;19.28;51.25;99677.76;1763460;80;21836;-62
2022/06/17 04:33:00;;;;;;;7.05;3.00;;;;;;;19.38;51.38;99672.92;1700993;83;21495;-61
2022/06/17 04:35:27;;;;;;;4.67;2.87;;;;;;;19.53;51.41;99669.49;1710291;82;21909;-61
2022/06/17 04:37:53;;;;;;;4.15;2.80;;;;;;;19.71;51.18;99673.86;1668651;83;21628;-62
2022/06/17 04:40:54;;;;;;;4.55;2.65;;;;;;;19.87;51.08;99675.31;1699249;83;21046;-62
2022/06/17 04:43:34;;;;;;;4.47;2.62;;;;;;;20.01;51.02;99669.22;1692089;82;22028;-62
2022/06/17 04:46:12;;;;;;;4.12;2.77;;;;;;;20.16;50.53;99670.27;1691138;83;21604;-62
2022/06/17 04:48:40;;;;;;;6.47;2.40;;;;;;;20.26;49.80;99673.87;1692036;82;21549;-62
2022/06/17 04:51:08;;;;;;;4.97;2.37;;;;;;;20.39;49.96;99663.86;1679841;83;27139;-62
2022/06/17 04:53:38;;;;;;;2.92;2.25;;;;;;;20.52;49.69;99664.19;1702490;83;21574;-62
2022/06/17 04:56:23;;;;;;;5.40;2.40;;;;;;;20.64;49.26;99667.17;1677774;83;21521;-64
2022/06/17 04:59:37;;;;;;;3.00;2.27;;;;;;;20.75;48.71;99670.28;1615225;86;21452;-63
2022/06/17 05:02:13;;;;;;;4.58;1.95;;;;;;;20.81;48.42;99668.41;1746336;80;21585;-63
2022/06/17 05:04:47;;;;;;;5.15;2.50;;;;;;;20.89;47.46;99665.08;1743749;80;21593;-63
2022/06/17 05:07:15;;;;;;;5.42;2.40;;;;;;;20.93;47.27;99664.70;1769084;80;21530;-62
2022/06/17 05:10:05;;;;;;;4.28;2.12;;;;;;;20.99;47.33;99664.67;1758107;80;21826;-62
2022/06/17 05:12:40;;;;;;;3.58;2.27;;;;;;;21.03;47.10;99666.09;1746251;80;21517;-63
2022/06/17 05:15:11;;;;;;;7.33;2.85;;;;;;;21.07;46.96;99654.16;1750931;80;21463;-63
2022/06/17 05:17:38;;;;;;;9.60;2.85;;;;;;;21.10;46.41;99653.90;1764212;80;21428;-62
2022/06/17 05:20:10;;;;;;;6.72;2.52;;;;;;;21.13;46.33;99662.97;1741904;80;21566;-62
2022/06/17 05:22:45;;;;;;;6.00;2.85;;;;;;;21.18;46.43;99664.76;1738647;80;21826;-62
2022/06/17 05:25:18;;;;;;;6.60;2.75;;;;;;;21.27;46.60;99663.63;1744143;80;21014;-62
2022/06/17 05:27:46;;;;;;;4.58;2.65;;;;;;;21.32;46.54;99654.22;1763399;80;21553;-62
2022/06/17 05:30:13;;;;;;;3.47;2.50;;;;;;;21.39;46.21;99653.17;1751296;80;21471;-62
2022/06/17 05:32:45;;;;;;;5.45;2.92;;;;;;;21.46;45.92;99658.37;1739710;80;21115;-62
2022/06/17 05:35:12;;;;;;;7.60;3.00;;;;;;;21.53;46.03;99655.52;1752273;80;22039;-63
2022/06/17 05:37:40;;;;;;;4.62;2.35;;;;;;;21.61;46.39;99651.33;1754249;80;20998;-63
2022/06/17 05:40:10;;;;;;;3.77;2.37;;;;;;;21.72;46.65;99645.37;1748416;80;21522;-63
2022/06/17 05:42:38;;;;;;;4.15;2.10;;;;;;;21.88;46.11;99649.34;1743344;80;21463;-63
2022/06/17 05:45:07;;;;;;;7.30;2.98;;;;;;;22.05;46.58;99650.48;1746459;80;21494;-63
2022/06/17 05:47:37;;;;;;;2.77;2.22;;;;;;;22.19;46.17;99647.88;1747774;80;21824;-63
2022/06/17 05:50:25;;;;;;;7.23;2.23;;;;;;;22.30;46.18;99648.64;1759905;80;21029;-63
2022/06/17 05:53:13;;;;;;;9.38;2.10;;;;;;;22.42;46.16;99649.34;1723106;81;21037;-63
2022/06/17 05:55:50;;;;;;;4.72;2.00;;;;;;;22.59;45.51;99641.58;1716706;81;21593;-64
2022/06/17 05:58:17;;;;;;;5.42;2.20;;;;;;;22.75;45.03;99637.80;1729625;79;21609;-63
2022/06/17 06:00:44;;;;;;;5.22;2.12;;;;;;;22.90;44.67;99641.70;1744791;80;21866;-67
2022/06/17 06:03:21;;;;;;;5.93;2.77;;;;;;;23.09;43.86;99640.87;1740747;80;21447;-65
2022/06/17 06:05:49;;;;;;;3.45;2.05;;;;;;;23.25;43.19;99641.57;1749713;79;21455;-66
2022/06/17 06:08:18;;;;;;;4.95;1.90;;;;;;;23.34;43.38;99637.17;1756514;80;21444;-65
2022/06/17 06:10:45;;;;;;;3.30;1.57;;;;;;;23.49;42.69;99640.21;1750753;80;21521;-65
2022/06/17 06:13:16;;;;;;;3.58;1.65;;;;;;;23.65;42.13;99638.20;1758263;80;21569;-63
2022/06/17 06:15:47;;;;;;;4.75;1.87;;;;;;;23.75;41.71;99639.48;1753001;80;21503;-65
2022/06/17 06:18:21;;;;;;;2.67;1.47;;;;;;;23.87;41.12;99634.30;1745353;80;21435;-65
2022/06/17 06:20:48;;;;;;;2.00;1.25;;;;;;;23.99;40.91;99636.26;1751188;80;21563;-62
2022/06/17 06:23:14;;;;;;;3.40;1.50;;;;;;;24.18;40.02;99637.95;1742576;80;21042;-65
2022/06/17 06:25:41;;;;;;;4.28;1.62;;;;;;;24.32;39.78;99628.50;1748454;80;21628;-63
2022/06/17 06:28:21;;;;;;;3.92;1.42;;;;;;;24.41;38.99;99633.81;1751496;80;21002;-65
2022/06/17 06:31:09;;;;;;;5.03;1.65;;;;;;;24.51;38.77;99635.57;1746011;80;20967;-63
2022/06/17 06:33:36;;;;;;;5.75;1.60;;;;;;;24.61;39.40;99627.77;1758177;80;21429;-64
2022/06/17 06:36:05;;;;;;;2.55;1.40;;;;;;;24.67;38.63;99628.98;1729178;80;21557;-67
2022/06/17 06:38:32;;;;;;;2.05;1.50;;;;;;;24.71;37.92;99621.45;1756387;80;21423;-65
2022/06/17 06:41:03;;;;;;;2.00;1.50;;;;;;;24.86;37.67;99622.08;1754519;80;21547;-64
2022/06/17 06:43:29;;;;;;;3.12;1.32;;;;;;;24.96;37.11;99623.31;1696265;82;21557;-68
2022/06/17 06:45:59;;;;;;;4.75;1.60;;;;;;;25.06;36.31;99615.96;1750119;80;21074;-64
2022/06/17 06:48:26;;;;;;;1.70;1.42;;;;;;;25.14;35.99;99615.67;1757260;80;21534;-64
2022/06/17 06:50:54;;;;;;;;;;;;;;;25.11;34.35;99615.50;1764177;80;21873;-68
2022/06/17 06:53:23;;;;;;;2.62;1.47;;;;;;;25.00;34.68;99604.50;1746462;80;20411;-67
2022/06/17 06:55:50;;;;;;;2.17;1.30;;;;;;;25.01;35.65;99611.55;1749444;80;21463;-66
2022/06/17 06:58:22;;;;;;;1.85;1.42;;;;;;;25.07;35.62;99616.80;1754202;80;21459;-63
2022/06/17 07:01:05;;;;;;;6.05;1.90;;;;;;;25.12;35.61;99613.13;1758905;80;21117;-65
2022/06/17 07:03:31;;;;;;;3.22;1.50;;;;;;;25.13;35.40;99614.83;1653650;85;21717;-64
2022/06/17 07:06:03;;;;;;;3.47;1.62;;;;;;;25.11;35.55;99609.25;1659740;84;21840;-63
2022/06/17 07:08:34;;;;;;;2.02;1.60;;;;;;;25.18;36.04;99618.38;1656762;84;21554;-64
2022/06/17 07:11:00;;;;;;;3.52;1.77;;;;;;;25.20;34.77;99619.05;1652507;85;21638;-62
2022/06/17 07:13:29;;;;;;;2.50;1.52;;;;;;;25.19;35.04;99610.66;1653229;85;21815;-63
2022/06/17 07:15:57;;;;;;;6.70;1.95;;;;;;;25.17;34.38;99614.02;1649547;85;21578;-64
2022/06/17 07:18:31;;;;;;;2.35;1.37;;;;;;;25.14;34.45;99617.84;1651674;84;21565;-61
2022/06/17 07:21:00;;;;;;;1.42;1.30;;;;;;;25.10;34.61;99611.61;1662660;85;21554;-59
2022/06/17 07:23:34;;;;;;;2.27;1.52;;;;;;;25.18;33.70;99613.83;1653117;85;21483;-59
2022/06/17 07:26:09;;;;;;;4.22;1.32;;;;;;;25.18;33.70;99613.83;1660240;85;21653;-59
2022/06/17 07:28:36;;;;;;;2.90;1.50;;;;;;;25.27;33.99;99611.23;1652578;85;21839;-59
2022/06/17 07:31:03;;;;;;;2.65;1.62;;;;;;;25.31;33.72;99612.59;1650674;85;21621;-60
2022/06/17 07:33:31;;;;;;;3.57;1.83;;;;;;;25.38;33.13;99618.50;1653368;84;21707;-59
2022/06/17 07:36:01;;;;;;;1.60;1.32;;;;;;;25.44;33.36;99615.16;1657237;85;21557;-60
2022/06/17 07:41:17;;;;;;;4.28;1.37;;;;;;;25.66;32.75;99620.13;1630112;85;21918;-59
2022/06/17 07:43:44;;;;;;;3.17;1.60;;;;;;;25.75;32.62;99615.08;1654054;85;21587;-59
2022/06/17 07:46:10;;;;;;;2.50;1.47;;;;;;;25.80;32.13;99614.09;1648341;85;21555;-61
2022/06/17 07:48:38;;;;;;;5.15;1.92;;;;;;;25.79;31.68;99614.60;1654198;85;21593;-59
2022/06/17 07:51:08;;;;;;;4.78;1.67;;;;;;;25.86;32.43;99625.55;1650529;85;20993;-59
2022/06/17 07:53:35;;;;;;;1.92;1.45;;;;;;;25.90;32.05;99624.23;1652730;85;21828;-60
2022/06/17 07:56:03;;;;;;;1.60;1.20;;;;;;;25.95;31.79;99622.41;1648680;84;28812;-59
2022/06/17 07:58:31;;;;;;;1.25;1.05;;;;;;;26.00;31.39;99625.45;1652443;85;20998;-64
2022/06/17 08:00:58;;;;;;;5.72;1.37;;;;;;;26.11;31.34;99617.05;1645087;84;21590;-65
2022/06/17 08:03:25;;;;;;;2.42;1.30;;;;;;;26.23;31.20;99620.25;1648974;85;21558;-63
2022/06/17 08:05:55;;;;;;;2.80;1.50;;;;;;;26.39;30.79;99612.66;1645037;85;21754;-63
2022/06/17 08:08:23;;;;;;;4.10;1.35;;;;;;;26.55;30.81;99614.02;1646688;85;21658;-62
2022/06/17 08:10:53;;;;;;;1.60;1.42;;;;;;;26.68;29.98;99606.80;1643921;86;20987;-62
2022/06/17 08:13:21;;;;;;;3.47;1.77;;;;;;;26.80;30.02;99607.27;1651319;85;20997;-64
2022/06/17 08:15:53;;;;;;;1.65;1.17;;;;;;;26.90;30.28;99606.59;1644607;85;21463;-62
2022/06/17 08:18:20;;;;;;;2.90;1.47;;;;;;;26.97;29.66;99602.20;1646807;85;22191;-62
2022/06/17 08:20:48;;;;;;;2.22;1.00;;;;;;;26.99;30.08;99598.81;1649932;85;21507;-63
2022/06/17 08:23:15;;;;;;;1.37;1.27;;;;;;;27.11;29.28;99600.62;1654341;85;21462;-63
2022/06/17 08:25:42;;;;;;;3.92;1.50;;;;;;;27.05;29.23;99604.03;1643692;85;21624;-63
2022/06/17 08:28:10;;;;;;;1.95;1.25;;;;;;;27.03;30.08;99607.41;1645671;85;21061;-63
2022/06/17 08:30:44;;;;;;;3.33;1.42;;;;;;;26.93;29.81;99600.84;1646474;85;21893;-63
2022/06/17 08:33:10;;;;;;;1.42;1.20;;;;;;;26.94;30.21;99603.05;1648972;85;21467;-62
2022/06/17 08:35:44;;;;;;;2.20;1.40;;;;;;;26.98;29.76;99602.52;1630404;86;21590;-62
2022/06/17 08:38:21;;;;;;;3.27;1.15;;;;;;;27.01;28.95;99602.66;1644499;85;21542;-63
2022/06/17 08:40:58;;;;;;;2.20;1.20;;;;;;;26.96;29.44;99598.32;1644238;85;21542;-61
2022/06/17 08:44:14;;;;;;;1.05;0.95;;;;;;;26.94;29.55;99601.18;1645979;85;21581;-63
2022/06/17 08:47:16;;;;;;;2.12;1.30;;;;;;;26.87;29.19;99603.39;1642078;86;21570;-63
2022/06/17 08:50:07;;;;;;;1.80;1.17;;;;;;;26.74;29.56;99603.92;1649031;85;21550;-62
2022/06/17 08:53:22;;;;;;;2.45;1.60;;;;;;;26.63;29.69;99604.27;1677483;84;21519;-64
2022/06/17 08:56:14;;;;;;;1.20;1.10;;;;;;;26.57;29.58;99609.81;1625379;86;21472;-64
2022/06/17 08:59:20;;;;;;;3.62;1.42;;;;;;;26.49;30.43;99604.44;1669769;84;22191;-64
2022/06/17 09:02:08;;;;;;;3.52;1.22;;;;;;;26.59;30.44;99603.25;1670834;84;21448;-62
2022/06/17 09:05:02;;;;;;;2.90;1.10;;;;;;;26.77;29.99;99594.98;1669485;84;21575;-65
2022/06/17 09:07:59;;;;;;;4.62;1.27;;;;;;;26.89;29.57;99591.92;1588521;88;21615;-65
2022/06/17 09:13:47;;;;;;;2.08;1.22;;;;;;;26.47;29.75;99595.16;1792076;79;22656;-59
2022/06/17 09:16:36;;;;;;;5.97;1.55;;;;;;;27.00;29.07;99595.09;1770988;80;21699;-61
2022/06/17 09:19:03;;;;;;;3.08;1.00;;;;;;;27.04;29.08;99600.15;1767827;80;21531;-60
2022/06/17 09:21:49;;;;;;;3.75;1.32;;;;;;;27.12;28.92;99594.20;1769505;80;21508;-60
2022/06/17 09:24:33;;;;;;;2.02;1.10;;;;;;;27.11;28.25;99583.09;1764205;80;21556;-61
2022/06/17 09:27:04;;;;;;;3.35;1.30;;;;;;;27.18;28.39;99581.38;1762892;80;20986;-61
2022/06/17 09:30:11;;;;;;;1.25;1.10;;;;;;;27.33;29.09;99582.01;1756086;80;21574;-62
2022/06/17 09:33:08;;;;;;;3.98;1.30;;;;;;;27.42;29.21;99576.91;1767418;79;21827;-61
2022/06/17 09:35:40;;;;;;;3.22;1.15;;;;;;;27.48;28.07;99575.36;1767008;80;21589;-60
2022/06/17 09:38:30;;;;;;;2.72;1.30;;;;;;;27.58;28.10;99579.53;1760027;80;21045;-59
2022/06/17 09:41:01;;;;;;;1.72;1.17;;;;;;;27.67;27.15;99580.82;1747589;80;21611;-59
2022/06/17 09:43:52;;;;;;;1.70;1.17;;;;;;;27.70;27.73;99573.20;1745475;80;21431;-60
2022/06/17 09:46:51;;;;;;;3.72;1.40;;;;;;;27.79;27.87;99568.61;1703186;82;21895;-61
2022/06/17 09:49:36;;;;;;;2.62;1.20;;;;;;;27.96;28.17;99559.91;1697354;83;21453;-59
2022/06/17 09:52:17;;;;;;;2.05;1.30;;;;;;;28.12;27.56;99562.49;1691352;83;21594;-59
2022/06/17 09:54:52;;;;;;;1.47;1.12;;;;;;;28.24;27.39;99563.41;1693097;82;21534;-60
2022/06/17 09:57:50;;;;;;;3.25;1.25;;;;;;;28.28;26.82;99561.50;1693372;83;21421;-60
2022/06/17 10:00:23;;;;;;;1.72;1.00;;;;;;;28.32;26.92;99561.45;1683878;83;21793;-60
2022/06/17 10:03:17;;;;;;;4.50;1.22;;;;;;;28.29;26.80;99556.92;1693243;83;21496;-59
2022/06/17 10:06:21;;;;;;;1.75;1.35;;;;;;;28.33;26.75;99559.59;1678009;83;21721;-59
2022/06/17 10:08:59;;;;;;;2.37;1.45;;;;;;;28.31;25.86;99553.03;1681136;83;21532;-59
2022/06/17 10:12:09;;;;;;;1.22;1.10;;;;;;;28.25;26.61;99554.27;1686935;83;21506;-60
2022/06/17 10:15:19;;;;;;;2.62;1.27;;;;;;;28.34;26.19;99547.24;1689215;83;21795;-61
2022/06/17 10:21:12;;;;;;;1.37;1.20;;;;;;;28.61;26.65;99553.09;1706997;83;21529;-62
2022/06/17 10:24:00;;;;;;;;;;;;;;;28.51;26.03;99551.16;1697105;82;21548;-61
2022/06/17 10:26:38;;;;;;;1.62;1.22;;;;;;;28.55;26.30;99551.14;1696158;82;20435;-62
2022/06/17 10:29:29;;;;;;;4.40;1.32;;;;;;;28.63;25.85;99543.45;1723880;81;21849;-65
2022/06/17 10:31:55;;;;;;;3.25;1.30;;;;;;;28.70;25.56;99539.81;1683482;83;21454;-61
2022/06/17 10:34:36;;;;;;;2.17;1.17;;;;;;;28.71;26.25;99540.16;1685656;83;21632;-62
2022/06/17 10:37:04;;;;;;;5.25;1.25;;;;;;;28.64;25.96;99529.75;1692877;82;21502;-62
2022/06/17 10:39:33;;;;;;;1.25;1.10;;;;;;;28.62;26.16;99530.45;1682463;82;21546;-60
2022/06/17 10:42:00;;;;;;;2.83;1.32;;;;;;;28.64;26.16;99531.62;1672921;85;21731;-60
2022/06/17 10:44:28;;;;;;;2.75;1.17;;;;;;;28.69;25.81;99531.39;1669230;83;21542;-61
2022/06/17 10:47:06;;;;;;;2.37;1.35;;;;;;;28.75;25.81;99535.22;1674672;84;21006;-61
2022/06/17 10:49:44;;;;;;;1.90;1.37;;;;;;;28.84;25.49;99532.75;1674418;84;21542;-62
2022/06/17 10:52:17;;;;;;;2.45;1.17;;;;;;;28.83;25.71;99519.41;1637813;85;21585;-61
2022/06/17 10:54:44;;;;;;;2.10;1.40;;;;;;;28.91;26.66;99516.09;1674774;84;21646;-62
2022/06/17 10:57:28;;;;;;;4.73;1.30;;;;;;;29.14;26.93;99513.81;1669901;84;21554;-63
2022/06/17 10:59:54;;;;;;;4.20;1.42;;;;;;;29.26;26.81;99510.10;1641292;85;21585;-63
2022/06/17 11:02:29;;;;;;;2.30;1.10;;;;;;;29.38;25.20;99518.03;1672867;84;21551;-64
2022/06/17 11:05:02;;;;;;;2.77;1.10;;;;;;;29.30;25.61;99517.64;1650916;85;21658;-62
2022/06/17 11:07:41;;;;;;;1.77;1.40;;;;;;;29.23;25.04;99519.94;1650957;85;21522;-61
2022/06/17 11:10:21;;;;;;;1.35;1.10;;;;;;;29.12;24.44;99515.81;1650830;85;21589;-62
2022/06/17 11:13:01;;;;;;;1.57;1.05;;;;;;;29.12;25.12;99507.20;1674100;83;21561;-60
2022/06/17 11:15:36;;;;;;;1.25;1.10;;;;;;;29.29;24.35;99513.77;1671124;84;21537;-60
2022/06/17 11:18:26;;;;;;;2.10;1.37;;;;;;;29.28;24.21;99505.33;1654797;84;21564;-60
2022/06/17 11:21:02;;;;;;;4.35;1.30;;;;;;;29.28;24.02;99498.56;1639637;86;21837;-60
2022/06/17 11:23:44;;;;;;;2.42;1.25;;;;;;;29.33;24.52;99496.13;1656349;85;21547;-60
2022/06/17 11:26:27;;;;;;;2.25;1.20;;;;;;;29.45;24.36;99501.88;1675270;83;21564;-60
2022/06/17 11:29:01;;;;;;;1.30;1.20;;;;;;;29.48;24.37;99492.86;1673820;83;21546;-60
2022/06/17 11:31:38;;;;;;;2.72;1.35;;;;;;;29.53;24.89;99490.08;1657071;84;21507;-63
2022/06/17 11:34:17;;;;;;;3.75;1.30;;;;;;;29.69;24.51;99492.55;1681756;83;21865;-60
2022/06/17 11:37:04;;;;;;;4.60;1.52;;;;;;;29.60;24.33;99485.58;1666318;84;21546;-59
2022/06/17 11:39:34;;;;;;;2.83;1.57;;;;;;;29.43;25.70;99493.11;1667186;84;21596;-67
2022/06/17 11:42:24;;;;;;;1.65;1.20;;;;;;;29.49;25.99;99488.27;1688755;83;21596;-59
2022/06/17 11:44:59;;;;;;;3.52;1.67;;;;;;;29.57;25.41;99489.48;1707530;83;21594;-64
2022/06/17 11:47:27;;;;;;;1.72;1.30;;;;;;;29.56;25.23;99491.89;1702883;82;21854;-62
2022/06/17 11:49:57;;;;;;;2.27;1.20;;;;;;;29.47;24.96;99479.50;1703598;82;21467;-62
2022/06/17 11:52:34;;;;;;;3.87;1.15;;;;;;;29.46;26.27;99483.23;1705630;82;21401;-62
2022/06/17 11:55:01;;;;;;;2.95;1.40;;;;;;;29.62;25.91;99481.63;1668421;85;21530;-60
2022/06/17 11:57:31;;;;;;;7.83;1.47;;;;;;;29.71;25.46;99474.22;1683423;83;21630;-61
2022/06/17 12:00:03;;;;;;;1.82;1.10;;;;;;;29.82;25.95;99472.38;1689242;83;21772;-63
2022/06/17 12:02:33;;;;;;;3.42;1.70;;;;;;;29.96;26.48;99467.91;1684797;83;20989;-59
2022/06/17 12:05:23;;;;;;;3.10;1.60;;;;;;;30.11;26.96;99456.14;1686167;83;21612;-60
2022/06/17 12:08:04;;;;;;;2.65;1.95;;;;;;;30.16;26.68;99461.78;1682685;83;21681;-61
2022/06/17 12:13:29;;;;;;;3.10;1.77;;;;;;;30.00;27.27;99450.73;1711056;81;21782;-61
2022/06/17 12:16:23;;;;;;;3.20;2.15;;;;;;;29.96;26.74;99461.13;1708205;81;21561;-61
2022/06/17 12:18:55;;;;;;;2.47;1.98;;;;;;;29.86;26.43;99457.41;1707925;81;21513;-61
2022/06/17 12:21:55;;;;;;;3.22;1.92;;;;;;;29.75;27.01;99456.58;1706636;81;21564;-61
2022/06/17 12:24:49;;;;;;;4.20;2.02;;;;;;;29.83;27.44;99455.59;1675287;83;21002;-60
2022/06/17 12:27:29;;;;;;;2.58;1.92;;;;;;;29.98;27.16;99454.16;1675476;83;21395;-59